Time;durP1;ratioP1;P1;durP2;ratioP2;P2;SDS_P1;SDS_P2;PMS_P1;PMS_P2;Temp;Humidity;BMP_temperature;BMP_pressure;BME280_temperature;BME280_humidity;BME280_pressure;Samples;Min_cycle;Max_cycle;Signal;HPM_P1;HPM_P2
2021/04/19 00:02:23;;;;;;;9.10;8.20;;;8.90;96.20;;;;;;6251448;28;20475;-59
2021/04/19 00:05:26;;;;;;;10.53;9.50;;;8.80;96.10;;;;;;6250884;28;20566;-59
2021/04/19 00:08:28;;;;;;;8.57;7.77;;;8.80;96.20;;;;;;6250544;28;20502;-59
2021/04/19 00:11:33;;;;;;;8.70;7.87;;;8.80;96.30;;;;;;6250842;28;20478;-60
2021/04/19 00:14:38;;;;;;;7.50;6.80;;;8.90;96.40;;;;;;6250521;28;20998;-59
2021/04/19 00:17:41;;;;;;;7.57;6.87;;;9.00;96.20;;;;;;6250273;28;20493;-59
2021/04/19 00:20:44;;;;;;;9.30;8.40;;;9.10;95.90;;;;;;6250396;28;20479;-60
2021/04/19 00:23:46;;;;;;;8.00;7.20;;;9.00;95.60;;;;;;6250335;28;20486;-59
2021/04/19 00:26:48;;;;;;;8.27;6.60;;;9.10;95.40;;;;;;6250153;28;20985;-59
2021/04/19 00:29:50;;;;;;;8.40;7.60;;;9.10;95.00;;;;;;6250480;28;20527;-59
2021/04/19 00:32:53;;;;;;;7.90;7.20;;;9.20;95.00;;;;;;6250249;28;20487;-58
2021/04/19 00:35:56;;;;;;;7.60;6.90;;;9.20;95.00;;;;;;6250481;28;20467;-60
2021/04/19 00:38:58;;;;;;;8.20;6.83;;;9.20;94.80;;;;;;6250566;28;20474;-60
2021/04/19 00:42:01;;;;;;;8.57;7.77;;;9.30;94.50;;;;;;6249448;28;20985;-60
2021/04/19 00:45:04;;;;;;;8.17;7.37;;;9.30;94.30;;;;;;6245194;28;20982;-60
2021/04/19 00:48:09;;;;;;;7.63;6.80;;;9.40;94.30;;;;;;6249958;28;20505;-59
2021/04/19 00:51:11;;;;;;;8.30;7.40;;;9.40;94.30;;;;;;6249440;28;20542;-59
2021/04/19 00:54:14;;;;;;;8.97;8.07;;;9.40;94.20;;;;;;6250008;28;20463;-60
2021/04/19 00:57:17;;;;;;;7.50;6.80;;;9.50;94.10;;;;;;6249845;28;20448;-59
2021/04/19 01:00:23;;;;;;;7.33;6.63;;;9.40;93.90;;;;;;6249938;28;20777;-60
2021/04/19 01:03:26;;;;;;;6.17;5.57;;;9.50;93.60;;;;;;6250058;28;20467;-60
2021/04/19 01:06:28;;;;;;;7.83;6.70;;;9.50;93.40;;;;;;6249675;28;20569;-59
2021/04/19 01:09:30;;;;;;;7.03;6.33;;;9.50;93.20;;;;;;6249704;28;20459;-58
2021/04/19 01:12:33;;;;;;;6.60;6.00;;;9.50;93.00;;;;;;6249759;28;20467;-58
2021/04/19 01:15:35;;;;;;;8.03;7.10;;;9.50;93.00;;;;;;6249871;28;20469;-59
2021/04/19 01:18:38;;;;;;;7.27;6.63;;;9.50;93.00;;;;;;6249687;28;20790;-58
2021/04/19 01:21:42;;;;;;;6.27;5.63;;;9.50;93.10;;;;;;6249907;28;20479;-59
2021/04/19 01:24:44;;;;;;;7.10;6.47;;;9.50;93.10;;;;;;6249671;28;20482;-59
2021/04/19 01:27:47;;;;;;;7.93;7.13;;;9.50;93.20;;;;;;6250155;28;20471;-58
2021/04/19 01:30:51;;;;;;;7.10;6.40;;;9.50;93.40;;;;;;6249715;28;20986;-59
2021/04/19 01:33:53;;;;;;;9.17;7.57;;;9.60;93.20;;;;;;6249478;28;20795;-63
2021/04/19 01:36:57;;;;;;;7.70;6.87;;;9.50;93.70;;;;;;6249776;28;20471;-59
2021/04/19 01:39:59;;;;;;;8.53;7.10;;;9.60;93.60;;;;;;6249701;28;20969;-61
2021/04/19 01:43:02;;;;;;;7.50;6.30;;;9.60;93.70;;;;;;6249509;28;20482;-57
2021/04/19 01:46:04;;;;;;;7.60;6.90;;;9.60;93.80;;;;;;6239866;28;20475;-58
2021/04/19 01:49:13;;;;;;;7.80;6.90;;;9.50;93.60;;;;;;6249631;28;20485;-62
2021/04/19 01:52:16;;;;;;;6.83;6.33;;;9.60;93.50;;;;;;6251388;28;20472;-63
2021/04/19 01:55:20;;;;;;;7.67;6.60;;;9.60;93.50;;;;;;6253647;28;20476;-59
2021/04/19 01:58:25;;;;;;;7.30;6.60;;;9.60;93.50;;;;;;6253557;28;20479;-59
2021/04/19 02:01:29;;;;;;;7.93;7.13;;;9.60;93.70;;;;;;6254030;28;20477;-58
2021/04/19 02:04:40;;;;;;;7.63;6.87;;;9.60;93.80;;;;;;6253571;28;21013;-59
2021/04/19 02:07:52;;;;;;;7.33;6.67;;;9.50;93.90;;;;;;6254163;28;20471;-59
2021/04/19 02:11:03;;;;;;;8.40;7.50;;;9.50;94.30;;;;;;6253520;28;20562;-59
2021/04/19 02:14:15;;;;;;;8.63;7.20;;;9.50;94.50;;;;;;6253556;28;20475;-58
2021/04/19 02:17:28;;;;;;;7.27;6.40;;;9.50;94.50;;;;;;6253407;28;20819;-58
2021/04/19 02:20:37;;;;;;;8.13;7.40;;;9.50;94.30;;;;;;6253404;28;20860;-57
2021/04/19 02:23:45;;;;;;;8.10;7.20;;;9.40;94.30;;;;;;6253342;28;20479;-58
2021/04/19 02:26:52;;;;;;;7.23;6.40;;;9.40;94.40;;;;;;6253140;28;20471;-58
2021/04/19 02:29:57;;;;;;;6.77;6.17;;;9.40;94.60;;;;;;6253485;28;20466;-57
2021/04/19 02:33:02;;;;;;;8.50;6.60;;;9.30;94.50;;;;;;6253493;28;20967;-58
2021/04/19 02:36:06;;;;;;;6.87;6.20;;;9.30;94.60;;;;;;6253740;28;20549;-57
2021/04/19 02:39:09;;;;;;;8.47;6.70;;;9.20;94.50;;;;;;6252833;28;20989;-57
2021/04/19 02:42:13;;;;;;;8.10;6.13;;;9.20;94.60;;;;;;6252522;28;20461;-58
2021/04/19 02:45:15;;;;;;;8.40;7.60;;;9.10;94.40;;;;;;6253039;28;20482;-57
2021/04/19 02:48:21;;;;;;;8.10;7.40;;;9.20;95.20;;;;;;6253013;28;20530;-57
2021/04/19 02:51:25;;;;;;;9.07;7.20;;;9.20;95.60;;;;;;6252728;28;20879;-58
2021/04/19 02:54:28;;;;;;;10.00;9.13;;;9.10;95.70;;;;;;6252795;28;20459;-62
2021/04/19 02:57:36;;;;;;;9.90;8.97;;;9.10;95.90;;;;;;6252558;28;20481;-58
2021/04/19 03:00:44;;;;;;;10.37;9.37;;;9.10;96.70;;;;;;6252518;28;20774;-58
2021/04/19 03:03:48;;;;;;;9.83;8.90;;;9.00;97.20;;;;;;6252221;28;20479;-58
2021/04/19 03:06:53;;;;;;;9.57;8.57;;;9.00;97.40;;;;;;6252647;28;20486;-58
2021/04/19 03:10:01;;;;;;;10.90;9.23;;;9.00;97.20;;;;;;6252496;28;20554;-58
2021/04/19 03:13:05;;;;;;;10.00;8.23;;;9.00;96.90;;;;;;6252340;28;20479;-58
2021/04/19 03:16:07;;;;;;;9.20;8.30;;;9.00;97.10;;;;;;6252227;28;20476;-58
2021/04/19 03:19:11;;;;;;;10.80;8.90;;;8.90;97.20;;;;;;6252059;28;20478;-57
2021/04/19 03:22:14;;;;;;;9.47;8.53;;;8.90;97.50;;;;;;6252493;28;20467;-58
2021/04/19 03:25:19;;;;;;;8.83;8.03;;;9.00;97.60;;;;;;6252090;28;20475;-58
2021/04/19 03:28:21;;;;;;;11.23;7.47;;;9.00;97.70;;;;;;6252117;28;20459;-58
2021/04/19 03:31:27;;;;;;;8.23;7.37;;;9.10;97.50;;;;;;6252260;28;20467;-60
2021/04/19 03:34:32;;;;;;;10.10;8.90;;;9.10;97.50;;;;;;6252222;28;20641;-59
2021/04/19 03:37:39;;;;;;;7.87;7.17;;;9.10;97.20;;;;;;6251586;28;20475;-59
2021/04/19 03:40:43;;;;;;;7.53;6.83;;;9.20;97.20;;;;;;6251409;28;20475;-59
2021/04/19 03:43:51;;;;;;;10.83;8.30;;;9.20;97.10;;;;;;6251590;28;20475;-59
2021/04/19 03:46:55;;;;;;;10.07;9.00;;;9.10;97.20;;;;;;6251485;28;20963;-63
2021/04/19 03:50:00;;;;;;;9.60;8.70;;;9.00;97.80;;;;;;6251429;28;20475;-63
2021/04/19 03:53:03;;;;;;;11.47;9.17;;;8.90;98.50;;;;;;6241986;28;20562;-62
2021/04/19 03:56:09;;;;;;;10.07;8.97;;;8.80;98.90;;;;;;6251261;28;20812;-62
2021/04/19 03:59:14;;;;;;;10.90;9.13;;;8.80;99.00;;;;;;6251140;28;20482;-62
2021/04/19 04:02:18;;;;;;;9.83;8.90;;;8.80;99.20;;;;;;6251619;28;20467;-58
2021/04/19 04:05:21;;;;;;;8.20;7.40;;;8.90;99.10;;;;;;6251091;28;20518;-58
2021/04/19 04:08:24;;;;;;;8.93;7.00;;;8.80;98.60;;;;;;6250959;28;20475;-62
2021/04/19 04:11:28;;;;;;;7.53;6.70;;;8.80;97.00;;;;;;6250985;28;20474;-59
2021/04/19 04:14:30;;;;;;;8.80;6.53;;;8.80;95.50;;;;;;6250540;28;20481;-58
2021/04/19 04:17:33;;;;;;;7.03;6.33;;;8.70;95.20;;;;;;6251235;28;20482;-57
2021/04/19 04:20:35;;;;;;;6.70;5.97;;;8.80;95.10;;;;;;6250871;28;20467;-58
2021/04/19 04:23:38;;;;;;;6.37;5.60;;;8.80;94.80;;;;;;6250685;28;20478;-58
2021/04/19 04:26:42;;;;;;;6.70;5.67;;;8.80;94.40;;;;;;6250810;28;20483;-58
2021/04/19 04:29:45;;;;;;;7.60;6.60;;;8.80;94.40;;;;;;6250479;28;20966;-58
2021/04/19 04:32:47;;;;;;;11.10;6.50;;;8.70;94.40;;;;;;6250917;28;20475;-58
2021/04/19 04:35:49;;;;;;;7.40;6.03;;;8.70;94.20;;;;;;6250368;28;20462;-58
2021/04/19 04:38:51;;;;;;;7.77;5.50;;;8.80;94.20;;;;;;6250540;28;20481;-58
2021/04/19 04:41:54;;;;;;;7.20;5.80;;;8.80;94.10;;;;;;6250219;28;20475;-58
2021/04/19 04:44:57;;;;;;;5.77;5.27;;;8.80;94.00;;;;;;6249950;28;20474;-58
2021/04/19 04:48:01;;;;;;;7.30;6.30;;;8.90;94.00;;;;;;6250082;28;20471;-58
2021/04/19 04:51:09;;;;;;;6.47;5.80;;;9.00;94.00;;;;;;6250536;28;20844;-58
2021/04/19 04:54:15;;;;;;;7.90;7.10;;;9.10;93.80;;;;;;6250198;28;20486;-58
2021/04/19 04:57:22;;;;;;;11.30;9.07;;;9.20;93.70;;;;;;6249642;28;20755;-59
2021/04/19 05:00:25;;;;;;;8.57;7.60;;;9.20;94.10;;;;;;6249920;28;20752;-58
2021/04/19 05:03:29;;;;;;;8.27;7.47;;;9.30;94.30;;;;;;6250081;28;20455;-58
2021/04/19 05:06:32;;;;;;;10.67;9.57;;;9.30;94.80;;;;;;6250106;28;20489;-58
2021/04/19 05:09:35;;;;;;;12.03;10.17;;;9.40;95.90;;;;;;6248380;28;20583;-58
2021/04/19 05:12:39;;;;;;;11.43;9.53;;;9.40;96.90;;;;;;6248107;28;21239;-57
2021/04/19 05:15:42;;;;;;;10.53;9.50;;;9.40;97.50;;;;;;6248952;28;20474;-58
2021/04/19 05:18:44;;;;;;;12.87;9.57;;;9.40;97.70;;;;;;6248677;28;20479;-57
2021/04/19 05:21:48;;;;;;;11.73;9.13;;;9.40;97.60;;;;;;6249186;28;20974;-57
2021/04/19 05:24:51;;;;;;;9.83;8.83;;;9.30;97.70;;;;;;6249712;28;20474;-58
2021/04/19 05:27:55;;;;;;;14.73;9.23;;;9.40;97.80;;;;;;6251273;28;20816;-59
2021/04/19 05:30:57;;;;;;;12.77;9.00;;;9.40;97.70;;;;;;6252609;28;20585;-58
2021/04/19 05:33:59;;;;;;;14.50;10.50;;;9.50;97.90;;;;;;6252029;28;20474;-57
2021/04/19 05:37:03;;;;;;;14.77;10.17;;;9.50;98.00;;;;;;6252198;28;20805;-58
2021/04/19 05:40:08;;;;;;;13.87;10.33;;;9.50;97.90;;;;;;6252523;28;20501;-59
2021/04/19 05:43:13;;;;;;;19.13;10.53;;;9.50;98.50;;;;;;6253779;28;20481;-58
2021/04/19 05:46:17;;;;;;;11.50;9.60;;;9.60;98.80;;;;;;6254702;28;20485;-58
2021/04/19 05:49:20;;;;;;;12.80;10.23;;;9.60;98.90;;;;;;6254079;28;20998;-59
2021/04/19 05:52:22;;;;;;;12.47;10.50;;;9.70;99.10;;;;;;6253741;28;20478;-57
2021/04/19 05:55:28;;;;;;;13.73;12.33;;;9.70;98.80;;;;;;6254351;28;20466;-58
2021/04/19 05:58:36;;;;;;;13.80;11.60;;;9.80;98.70;;;;;;6253892;28;20489;-58
2021/04/19 06:01:42;;;;;;;13.20;11.40;;;9.90;98.20;;;;;;6254130;28;20471;-57
2021/04/19 06:04:51;;;;;;;12.40;10.40;;;9.90;97.70;;;;;;6253936;28;20471;-57
2021/04/19 06:08:02;;;;;;;14.33;11.90;;;9.90;97.50;;;;;;6254177;28;20463;-57
2021/04/19 06:11:09;;;;;;;13.03;10.30;;;9.90;97.50;;;;;;6253851;28;20463;-57
2021/04/19 06:14:15;;;;;;;13.50;11.07;;;10.00;97.10;;;;;;6253775;28;20478;-57
2021/04/19 06:17:19;;;;;;;10.90;9.43;;;10.10;97.20;;;;;;6253360;28;20809;-57
2021/04/19 06:20:23;;;;;;;11.13;10.03;;;10.30;97.20;;;;;;6253554;28;20470;-57
2021/04/19 06:23:26;;;;;;;15.13;10.40;;;10.40;96.60;;;;;;6253354;28;20470;-58
2021/04/19 06:26:28;;;;;;;9.30;8.40;;;10.50;96.30;;;;;;6252985;28;20562;-62
2021/04/19 06:29:32;;;;;;;8.67;7.77;;;10.80;95.30;;;;;;6253376;28;20531;-58
2021/04/19 06:32:34;;;;;;;10.00;8.90;;;11.10;94.20;;;;;;6251896;28;20467;-58
2021/04/19 06:35:37;;;;;;;7.00;6.40;;;11.30;93.20;;;;;;6252821;28;20469;-58
2021/04/19 06:38:39;;;;;;;6.13;5.23;;;11.60;92.90;;;;;;6252834;28;20977;-57
2021/04/19 06:41:44;;;;;;;5.67;4.77;;;11.80;90.00;;;;;;6252307;28;20493;-58
2021/04/19 06:44:48;;;;;;;3.60;3.30;;;12.00;87.20;;;;;;6252109;28;20466;-58
2021/04/19 06:47:52;;;;;;;3.60;3.23;;;12.30;83.50;;;;;;6252243;28;20466;-58
2021/04/19 06:50:55;;;;;;;3.23;2.93;;;12.60;81.30;;;;;;6251881;28;21158;-58
2021/04/19 06:53:58;;;;;;;3.90;2.77;;;12.90;77.40;;;;;;6251555;28;20553;-58
2021/04/19 06:57:01;;;;;;;3.50;3.20;;;13.10;74.80;;;;;;6252021;28;20474;-58
2021/04/19 07:00:06;;;;;;;7.13;3.10;;;13.30;72.70;;;;;;6251452;28;20478;-59
2021/04/19 07:03:08;;;;;;;3.00;2.80;;;13.50;70.60;;;;;;6251972;28;20820;-56
2021/04/19 07:06:12;;;;;;;3.63;3.43;;;13.50;68.20;;;;;;6243321;28;20835;-58
2021/04/19 07:09:21;;;;;;;3.93;3.60;;;13.50;68.30;;;;;;6252250;28;20516;-58
2021/04/19 07:12:25;;;;;;;5.03;4.00;;;13.30;67.80;;;;;;6252399;28;20537;-58
2021/04/19 07:15:29;;;;;;;4.10;3.70;;;13.10;68.70;;;;;;6252383;28;20454;-58
2021/04/19 07:18:33;;;;;;;3.30;3.00;;;13.00;68.90;;;;;;6252315;28;20492;-57
2021/04/19 07:21:36;;;;;;;4.30;3.90;;;13.00;68.80;;;;;;6252380;28;20538;-58
2021/04/19 07:24:39;;;;;;;4.40;4.03;;;13.20;69.30;;;;;;6252037;28;20478;-58
2021/04/19 07:27:41;;;;;;;5.23;3.40;;;13.60;67.30;;;;;;6251691;28;20903;-59
2021/04/19 07:30:45;;;;;;;4.40;3.97;;;13.90;66.20;;;;;;6248607;28;20459;-59
2021/04/19 07:33:47;;;;;;;3.63;3.30;;;14.10;64.50;;;;;;6250965;28;20933;-59
2021/04/19 07:36:51;;;;;;;5.10;3.60;;;14.10;64.70;;;;;;6251502;28;20466;-59
2021/04/19 07:39:53;;;;;;;4.80;3.50;;;14.30;63.50;;;;;;6250084;28;20781;-57
2021/04/19 07:43:11;;;;;;;3.43;3.17;;;14.70;62.90;;;;;;6250461;28;20467;-59
2021/04/19 07:46:16;;;;;;;3.30;3.00;;;15.20;60.50;;;;;;6249951;28;20471;-58
2021/04/19 07:49:18;;;;;;;2.90;2.60;;;15.90;58.40;;;;;;6249994;28;20978;-59
2021/04/19 07:52:21;;;;;;;2.97;2.30;;;16.20;56.10;;;;;;6251115;28;20473;-63
2021/04/19 07:55:26;;;;;;;2.97;2.73;;;16.10;55.70;;;;;;6251083;28;20475;-62
2021/04/19 07:58:44;;;;;;;2.63;2.43;;;16.10;55.60;;;;;;6251344;28;21065;-63
2021/04/19 08:01:56;;;;;;;3.97;2.27;;;16.20;55.60;;;;;;6251786;28;20471;-62
2021/04/19 08:05:04;;;;;;;3.80;2.00;;;16.20;55.20;;;;;;6250948;28;20485;-63
2021/04/19 08:08:07;;;;;;;2.90;2.70;;;15.90;54.40;;;;;;6245569;28;20984;-64
2021/04/19 08:11:10;;;;;;;2.53;1.97;;;15.40;54.90;;;;;;6247834;28;20557;-63
2021/04/19 08:14:13;;;;;;;2.47;2.10;;;15.10;55.80;;;;;;6250539;28;20467;-62
2021/04/19 08:17:16;;;;;;;2.40;2.20;;;14.80;56.00;;;;;;6250582;28;20852;-63
2021/04/19 08:20:19;;;;;;;3.90;2.10;;;14.50;56.90;;;;;;6250332;28;20558;-62
2021/04/19 08:23:22;;;;;;;2.73;2.53;;;14.10;58.10;;;;;;6250528;28;20467;-62
2021/04/19 08:26:44;;;;;;;3.23;2.93;;;13.90;61.00;;;;;;6250384;28;20479;-62
2021/04/19 08:29:47;;;;;;;1.70;1.60;;;13.70;62.00;;;;;;6249453;28;20477;-62
2021/04/19 08:32:50;;;;;;;2.00;1.90;;;13.50;61.50;;;;;;6249407;28;20466;-64
2021/04/19 08:35:54;;;;;;;2.63;2.43;;;13.40;60.90;;;;;;6250200;28;20478;-62
2021/04/19 08:38:57;;;;;;;2.53;2.33;;;13.40;61.90;;;;;;6249854;28;20473;-62
2021/04/19 08:42:01;;;;;;;3.60;3.03;;;13.10;64.30;;;;;;6250411;28;20677;-63
2021/04/19 08:45:05;;;;;;;2.73;2.53;;;13.00;67.30;;;;;;6250187;28;20471;-66
2021/04/19 08:48:13;;;;;;;3.20;2.70;;;13.00;67.50;;;;;;6249889;28;20970;-65
2021/04/19 08:51:16;;;;;;;2.57;2.37;;;13.10;67.90;;;;;;6250414;28;20772;-63
2021/04/19 08:54:18;;;;;;;2.43;2.23;;;13.20;66.00;;;;;;6249910;28;20473;-63
2021/04/19 08:57:21;;;;;;;2.53;2.33;;;13.20;64.10;;;;;;6250113;28;20451;-64
2021/04/19 09:00:26;;;;;;;2.40;2.20;;;13.30;62.70;;;;;;6249165;28;21033;-63
2021/04/19 09:03:29;;;;;;;2.73;2.53;;;13.40;62.90;;;;;;6249558;28;20470;-64
2021/04/19 09:06:42;;;;;;;2.83;2.63;;;13.40;63.20;;;;;;6249859;28;20483;-61
2021/04/19 09:09:51;;;;;;;2.40;2.20;;;13.50;62.90;;;;;;6249928;28;20475;-65
2021/04/19 09:12:53;;;;;;;5.60;1.90;;;13.50;63.20;;;;;;6240107;28;20825;-61
2021/04/19 09:16:11;;;;;;;1.90;1.63;;;13.50;61.70;;;;;;6250050;28;20474;-61
2021/04/19 09:19:18;;;;;;;2.23;1.90;;;13.40;60.80;;;;;;6249768;28;20463;-65
2021/04/19 09:22:21;;;;;;;2.40;2.00;;;13.40;61.90;;;;;;6249300;28;20509;-64
2021/04/19 09:25:42;;;;;;;2.30;2.10;;;13.50;61.90;;;;;;6249455;28;20966;-61
2021/04/19 09:28:53;;;;;;;1.80;1.70;;;13.60;61.40;;;;;;6249714;28;20468;-61
2021/04/19 09:32:01;;;;;;;2.00;1.70;;;13.90;59.60;;;;;;6248902;28;20477;-62
2021/04/19 09:35:05;;;;;;;1.90;1.80;;;14.10;58.90;;;;;;6243726;28;20490;-62
2021/04/19 09:38:07;;;;;;;1.40;1.30;;;14.40;58.20;;;;;;6249285;28;20466;-62
2021/04/19 09:41:12;;;;;;;3.17;1.80;;;14.80;57.00;;;;;;6249462;28;20984;-61
2021/04/19 09:44:27;;;;;;;1.70;1.60;;;15.30;55.80;;;;;;6249206;28;20495;-62
2021/04/19 09:47:51;;;;;;;2.70;1.77;;;16.20;55.20;;;;;;6249111;28;20489;-63
2021/04/19 09:50:54;;;;;;;1.60;1.47;;;17.00;52.50;;;;;;6247664;28;20616;-62
2021/04/19 09:54:00;;;;;;;1.90;1.70;;;17.20;51.00;;;;;;6248890;28;20620;-64
2021/04/19 09:57:10;;;;;;;1.97;1.83;;;17.50;50.30;;;;;;6248472;28;20490;-62
2021/04/19 10:00:14;;;;;;;2.23;2.03;;;17.80;49.20;;;;;;6248399;28;20481;-63
2021/04/19 10:03:18;;;;;;;2.40;2.07;;;17.90;48.20;;;;;;6249184;28;20853;-62
2021/04/19 10:06:23;;;;;;;2.20;2.00;;;18.00;48.00;;;;;;6249111;28;20542;-63
2021/04/19 10:09:27;;;;;;;2.10;1.77;;;17.90;47.90;;;;;;6249183;28;20436;-62
2021/04/19 10:12:32;;;;;;;2.90;1.90;;;17.60;48.10;;;;;;6249069;28;20435;-62
2021/04/19 10:15:35;;;;;;;2.07;1.97;;;17.30;48.80;;;;;;6248979;28;20432;-63
2021/04/19 10:18:40;;;;;;;4.60;2.23;;;17.10;48.70;;;;;;6253390;28;20903;-62
2021/04/19 10:21:43;;;;;;;1.50;1.40;;;16.70;50.40;;;;;;6253648;28;20471;-61
2021/04/19 10:24:51;;;;;;;2.40;2.00;;;16.40;50.20;;;;;;6253286;28;20478;-63
2021/04/19 10:27:53;;;;;;;2.53;2.00;;;16.20;50.30;;;;;;6252593;28;20481;-61
2021/04/19 10:31:12;;;;;;;3.40;2.03;;;16.10;50.40;;;;;;6252763;28;20475;-63
2021/04/19 10:34:15;;;;;;;2.47;2.27;;;16.00;52.10;;;;;;6250143;28;20490;-62
2021/04/19 10:37:18;;;;;;;3.03;2.80;;;16.00;51.70;;;;;;6250615;28;20810;-62
2021/04/19 10:40:21;;;;;;;2.63;2.43;;;15.90;53.30;;;;;;6250211;28;20593;-61
2021/04/19 10:43:23;;;;;;;5.30;4.43;;;15.60;53.70;;;;;;6250503;28;20479;-61
2021/04/19 10:46:31;;;;;;;6.23;5.13;;;15.50;58.90;;;;;;6250319;28;20483;-62
2021/04/19 10:49:34;;;;;;;5.63;5.13;;;15.80;61.10;;;;;;6252798;28;20971;-64
2021/04/19 10:52:38;;;;;;;5.60;5.10;;;15.80;62.30;;;;;;6252594;28;20974;-64
2021/04/19 10:55:40;;;;;;;6.50;5.80;;;15.80;63.70;;;;;;6250635;28;20471;-63
2021/04/19 10:58:44;;;;;;;7.70;5.23;;;16.00;63.70;;;;;;6252207;28;20485;-62
2021/04/19 11:01:55;;;;;;;5.47;4.93;;;16.40;62.60;;;;;;6252211;28;20485;-62
2021/04/19 11:04:59;;;;;;;5.33;4.90;;;16.60;62.10;;;;;;6252351;28;20562;-60
2021/04/19 11:08:02;;;;;;;5.87;5.37;;;17.00;60.50;;;;;;6252352;28;20485;-63
2021/04/19 11:11:36;;;;;;;5.53;5.00;;;17.20;60.40;;;;;;6251310;28;20486;-63
2021/04/19 11:14:39;;;;;;;5.37;4.87;;;16.60;61.50;;;;;;6242693;28;20478;-61
2021/04/19 11:17:41;;;;;;;5.20;4.77;;;16.60;61.20;;;;;;6252033;28;20462;-61
2021/04/19 11:20:44;;;;;;;4.90;4.50;;;16.20;61.20;;;;;;6252045;28;20561;-60
2021/04/19 11:23:47;;;;;;;5.97;5.47;;;15.90;62.20;;;;;;6237506;28;20487;-61
2021/04/19 11:27:04;;;;;;;5.33;4.70;;;16.00;61.50;;;;;;6251778;28;20479;-61
2021/04/19 11:30:27;;;;;;;6.17;4.43;;;15.60;61.00;;;;;;6251685;28;20962;-61
2021/04/19 11:33:29;;;;;;;4.40;4.00;;;15.30;61.50;;;;;;6241052;28;20550;-62
2021/04/19 11:36:36;;;;;;;4.90;4.50;;;15.20;61.00;;;;;;6251935;28;20449;-62
2021/04/19 11:39:40;;;;;;;7.17;4.80;;;15.10;61.80;;;;;;6251441;28;20540;-59
2021/04/19 11:42:42;;;;;;;3.67;3.33;;;15.00;62.50;;;;;;6251536;28;20482;-59
2021/04/19 11:45:44;;;;;;;5.67;4.00;;;14.90;63.00;;;;;;6251578;28;20463;-58
2021/04/19 11:48:52;;;;;;;4.07;3.67;;;14.80;64.50;;;;;;6251261;28;20788;-58
2021/04/19 11:51:54;;;;;;;5.90;4.70;;;14.70;63.20;;;;;;6251518;28;20471;-58
2021/04/19 11:54:57;;;;;;;4.50;3.00;;;14.50;66.70;;;;;;6250945;28;20924;-58
2021/04/19 11:57:59;;;;;;;3.20;2.43;;;14.30;67.70;;;;;;6250778;28;20787;-58
2021/04/19 12:01:03;;;;;;;2.90;2.50;;;14.30;66.80;;;;;;6251388;28;20471;-58
2021/04/19 12:04:12;;;;;;;2.67;2.40;;;14.50;67.70;;;;;;6250662;28;20479;-58
2021/04/19 12:07:14;;;;;;;3.10;2.80;;;14.70;64.90;;;;;;6251017;28;20471;-57
2021/04/19 12:10:17;;;;;;;3.20;2.90;;;14.90;64.20;;;;;;6253058;28;20471;-60
2021/04/19 12:13:19;;;;;;;2.70;2.37;;;15.10;61.60;;;;;;6269730;28;20491;-58
2021/04/19 12:16:22;;;;;;;4.90;3.77;;;15.40;62.50;;;;;;6249531;28;20470;-58
2021/04/19 12:19:24;;;;;;;3.27;2.77;;;15.70;62.60;;;;;;6250715;28;20580;-58
2021/04/19 12:22:27;;;;;;;2.90;2.70;;;16.00;61.80;;;;;;6250461;28;20462;-61
2021/04/19 12:25:30;;;;;;;4.30;3.47;;;16.00;59.80;;;;;;6240168;28;20493;-60
2021/04/19 12:28:32;;;;;;;5.10;4.60;;;16.20;57.20;;;;;;6250283;28;20479;-60
2021/04/19 12:31:35;;;;;;;5.97;5.43;;;16.20;60.90;;;;;;6250041;28;20471;-58
2021/04/19 12:34:37;;;;;;;6.40;5.80;;;16.20;65.50;;;;;;6249852;28;20967;-59
2021/04/19 12:37:39;;;;;;;6.80;6.10;;;15.50;70.20;;;;;;6250234;28;20482;-61
2021/04/19 12:40:43;;;;;;;6.10;5.57;;;15.40;72.60;;;;;;6249319;28;20694;-60
2021/04/19 12:43:46;;;;;;;6.37;5.87;;;15.50;74.30;;;;;;6247097;28;20815;-60
2021/04/19 12:46:48;;;;;;;5.93;5.43;;;16.10;72.60;;;;;;6249059;28;20486;-59
2021/04/19 12:49:53;;;;;;;6.07;5.47;;;16.50;70.00;;;;;;6249562;28;20517;-60
2021/04/19 12:52:57;;;;;;;6.40;5.80;;;16.30;71.00;;;;;;6247976;28;20560;-60
2021/04/19 12:56:12;;;;;;;5.80;5.30;;;16.30;70.50;;;;;;6247476;28;20478;-59
2021/04/19 12:59:14;;;;;;;5.80;5.13;;;16.10;70.70;;;;;;6246956;28;20482;-60
2021/04/19 13:02:16;;;;;;;6.40;5.77;;;16.10;70.80;;;;;;6247337;28;20478;-59
2021/04/19 13:05:19;;;;;;;5.97;5.33;;;15.90;70.90;;;;;;6247186;28;20474;-60
2021/04/19 13:08:21;;;;;;;6.33;5.83;;;16.00;70.60;;;;;;6247713;28;20478;-61
2021/04/19 13:11:24;;;;;;;6.57;5.60;;;15.80;71.70;;;;;;6249412;28;20467;-59
2021/04/19 13:14:27;;;;;;;6.90;6.20;;;15.70;73.40;;;;;;6249289;28;20834;-58
2021/04/19 13:17:29;;;;;;;6.27;5.77;;;15.70;73.80;;;;;;6249510;28;20473;-58
2021/04/19 13:20:32;;;;;;;6.40;5.43;;;15.60;74.70;;;;;;6249555;28;20481;-59
2021/04/19 13:23:34;;;;;;;8.30;7.50;;;15.20;76.80;;;;;;6249294;28;20821;-58
2021/04/19 13:26:39;;;;;;;7.43;6.83;;;14.80;79.50;;;;;;6249324;28;20490;-58
2021/04/19 13:29:41;;;;;;;8.10;6.00;;;14.70;80.50;;;;;;6244664;28;20869;-59
2021/04/19 13:32:49;;;;;;;6.57;5.07;;;14.80;80.40;;;;;;6249278;28;20550;-60
2021/04/19 13:35:52;;;;;;;4.70;4.30;;;14.60;77.40;;;;;;6249271;28;20475;-58
2021/04/19 13:38:55;;;;;;;3.43;3.13;;;14.70;77.60;;;;;;6249106;28;20463;-57
2021/04/19 13:41:58;;;;;;;4.03;3.63;;;14.80;68.00;;;;;;6249024;28;20640;-61
2021/04/19 13:45:19;;;;;;;4.40;3.60;;;14.80;68.40;;;;;;6248715;28;20525;-59
2021/04/19 13:48:22;;;;;;;4.40;3.77;;;15.00;69.80;;;;;;6251614;28;20482;-59
2021/04/19 13:51:24;;;;;;;4.90;4.40;;;15.40;68.80;;;;;;6258951;28;20446;-58
2021/04/19 13:54:26;;;;;;;5.37;4.43;;;15.60;66.20;;;;;;6278695;28;20466;-59
2021/04/19 13:57:29;;;;;;;6.03;4.10;;;15.70;67.60;;;;;;6278090;28;20772;-61
2021/04/19 14:00:31;;;;;;;5.30;4.80;;;15.10;68.80;;;;;;6278865;28;20418;-58
2021/04/19 14:03:33;;;;;;;5.63;5.13;;;14.80;71.60;;;;;;6278688;28;20466;-58
2021/04/19 14:06:35;;;;;;;8.60;5.80;;;14.70;76.10;;;;;;6278186;28;20973;-58
2021/04/19 14:09:38;;;;;;;6.27;5.67;;;14.60;77.50;;;;;;6278218;28;20921;-58
2021/04/19 14:12:41;;;;;;;6.77;6.10;;;14.40;77.70;;;;;;6262469;28;20467;-58
2021/04/19 14:15:45;;;;;;;7.67;6.00;;;14.30;81.40;;;;;;6253485;28;20467;-59
2021/04/19 14:18:47;;;;;;;7.77;4.70;;;14.40;84.00;;;;;;6252941;28;20463;-59
2021/04/19 14:21:50;;;;;;;8.03;6.40;;;14.20;74.20;;;;;;6253396;28;20513;-59
2021/04/19 14:24:53;;;;;;;8.63;7.80;;;13.90;84.90;;;;;;6253275;28;21007;-59
2021/04/19 14:27:56;;;;;;;7.13;6.43;;;13.40;90.30;;;;;;6252856;28;20485;-57
2021/04/19 14:30:58;;;;;;;7.77;6.97;;;13.40;91.00;;;;;;6248870;28;20794;-57
2021/04/19 14:34:01;;;;;;;7.50;6.80;;;13.60;90.80;;;;;;6248127;28;20564;-58
2021/04/19 14:37:03;;;;;;;7.57;6.67;;;13.70;90.60;;;;;;6252761;28;20819;-58
2021/04/19 14:40:08;;;;;;;7.00;6.30;;;13.80;91.30;;;;;;6252798;28;20828;-58
2021/04/19 14:43:11;;;;;;;7.47;6.47;;;13.90;91.50;;;;;;6252894;28;20475;-58
2021/04/19 14:46:13;;;;;;;8.17;5.77;;;14.10;90.50;;;;;;6252624;28;21018;-58
2021/04/19 14:49:16;;;;;;;6.50;5.90;;;14.20;88.00;;;;;;6252357;28;21004;-59
2021/04/19 14:52:18;;;;;;;7.47;6.67;;;14.30;88.40;;;;;;6265152;28;20488;-58
2021/04/19 14:55:20;;;;;;;8.00;6.40;;;14.40;87.30;;;;;;6277112;28;20973;-60
2021/04/19 14:58:23;;;;;;;7.13;6.47;;;14.60;86.40;;;;;;6276211;28;20482;-59
2021/04/19 15:01:25;;;;;;;6.63;6.03;;;14.70;85.20;;;;;;6276602;28;20469;-60
2021/04/19 15:04:30;;;;;;;7.17;6.50;;;14.90;84.20;;;;;;6276926;28;20478;-58
2021/04/19 15:07:32;;;;;;;6.43;5.80;;;15.20;84.70;;;;;;6277007;28;20498;-61
2021/04/19 15:10:34;;;;;;;7.90;7.20;;;15.40;84.20;;;;;;6276773;28;20922;-60
2021/04/19 15:13:38;;;;;;;6.00;5.20;;;15.60;82.40;;;;;;6276496;28;20954;-60
2021/04/19 15:16:40;;;;;;;9.10;8.20;;;15.70;79.20;;;;;;6227473;28;20455;-59
2021/04/19 15:19:43;;;;;;;7.17;6.20;;;15.90;79.10;;;;;;6226349;28;20479;-56
2021/04/19 15:22:45;;;;;;;7.80;7.00;;;15.80;79.60;;;;;;6227651;28;20486;-58
2021/04/19 15:25:48;;;;;;;9.07;7.57;;;15.60;81.20;;;;;;6249483;28;20612;-59
2021/04/19 15:28:51;;;;;;;8.30;7.50;;;15.00;84.10;;;;;;6251666;28;20467;-58
2021/04/19 15:31:55;;;;;;;7.60;6.90;;;14.70;85.90;;;;;;6251775;28;20472;-58
2021/04/19 15:34:58;;;;;;;6.70;6.10;;;14.40;85.80;;;;;;6251644;28;20811;-58
2021/04/19 15:38:00;;;;;;;6.70;5.90;;;14.30;86.70;;;;;;6251772;28;20471;-58
2021/04/19 15:41:03;;;;;;;7.10;6.40;;;14.20;85.90;;;;;;6251402;28;20478;-58
2021/04/19 15:44:07;;;;;;;6.90;5.77;;;14.00;86.20;;;;;;6251448;28;20475;-59
2021/04/19 15:47:11;;;;;;;6.97;6.30;;;13.90;88.40;;;;;;6251391;28;20483;-58
2021/04/19 15:50:14;;;;;;;7.20;6.20;;;13.90;89.00;;;;;;6251630;28;20479;-59
2021/04/19 15:53:16;;;;;;;6.90;6.30;;;14.00;90.00;;;;;;6271763;28;20559;-60
2021/04/19 15:56:22;;;;;;;7.03;6.43;;;14.20;90.40;;;;;;6275615;28;21041;-59
2021/04/19 15:59:25;;;;;;;7.70;7.00;;;14.30;90.30;;;;;;6252775;28;20821;-59
2021/04/19 16:02:27;;;;;;;9.27;8.10;;;14.20;90.30;;;;;;6232097;28;20522;-59